Time;durP1;ratioP1;P1;durP2;ratioP2;P2;SDS_P1;SDS_P2;PMS_P1;PMS_P2;Temp;Humidity;BMP_temperature;BMP_pressure;BME280_temperature;BME280_humidity;BME280_pressure;Samples;Min_cycle;Max_cycle;Signal;HPM_P1;HPM_P2
2023/07/31 00:01:28;;;;;;;;;2.00;2.00;;;;;22.16;53.19;101114.59;4998569;28;45478;-69
2023/07/31 00:03:53;;;;;;;;;3.00;3.00;;;;;22.15;53.60;101129.75;4999734;28;45568;-69
2023/07/31 00:06:19;;;;;;;;;3.33;2.67;;;;;22.13;53.49;101117.41;5008107;28;46405;-68
2023/07/31 00:08:44;;;;;;;;;3.33;3.00;;;;;22.17;53.35;101122.56;5002265;28;45428;-70
2023/07/31 00:11:10;;;;;;;;;5.33;3.00;;;;;22.16;53.75;101115.50;5018562;28;45410;-70
2023/07/31 00:13:37;;;;;;;;;4.33;3.33;;;;;22.12;53.62;101113.88;5015581;28;45518;-64
2023/07/31 00:16:03;;;;;;;;;3.67;3.00;;;;;22.13;53.64;101120.09;5009428;28;45522;-70
2023/07/31 00:18:29;;;;;;;;;5.67;3.67;;;;;22.14;53.67;101122.69;5004113;28;45517;-68
2023/07/31 00:20:54;;;;;;;;;4.00;2.00;;;;;22.10;53.70;101121.06;5001352;28;45467;-71
2023/07/31 00:23:20;;;;;;;;;3.00;3.00;;;;;22.05;53.73;101108.84;5005800;28;45383;-66
2023/07/31 00:25:46;;;;;;;;;4.00;4.00;;;;;22.13;54.36;101114.75;5002177;28;45570;-65
2023/07/31 00:28:11;;;;;;;;;4.33;4.00;;;;;22.05;53.90;101101.72;5006276;28;45423;-67
2023/07/31 00:30:37;;;;;;;;;3.33;3.33;;;;;22.05;54.03;101090.19;5006426;28;45427;-67
2023/07/31 00:33:03;;;;;;;;;3.00;3.00;;;;;22.02;53.82;101086.72;5010483;28;45568;-67
2023/07/31 00:35:28;;;;;;;;;3.00;3.00;;;;;22.07;53.99;101090.97;5015285;28;45526;-68
2023/07/31 00:37:58;;;;;;;;;2.00;2.00;;;;;21.89;53.96;101060.59;5030373;28;45714;-66
2023/07/31 00:40:23;;;;;;;;;4.33;4.00;;;;;22.00;54.13;101093.03;5014369;28;45639;-69
2023/07/31 00:42:49;;;;;;;;;6.33;4.00;;;;;21.73;54.55;101066.50;5015686;28;45412;-68
2023/07/31 00:45:15;;;;;;;;;4.33;3.67;;;;;21.80;54.69;101077.81;5016382;28;46203;-70
2023/07/31 00:47:40;;;;;;;;;5.00;3.33;;;;;21.87;54.60;101086.44;5018252;28;45430;-71
2023/07/31 00:50:07;;;;;;;;;3.67;3.00;;;;;21.78;54.57;101083.22;5017700;28;45571;-69
2023/07/31 00:52:32;;;;;;;;;3.00;3.00;;;;;21.80;54.48;101080.47;5031581;28;45571;-68
2023/07/31 00:54:59;;;;;;;;;3.67;3.67;;;;;21.90;54.85;101095.22;5016026;28;45516;-66
2023/07/31 00:57:24;;;;;;;;;4.00;3.00;;;;;21.91;54.52;101094.25;5016242;28;45799;-66
2023/07/31 00:59:50;;;;;;;;;3.00;3.00;;;;;21.86;54.49;101080.25;5016134;28;45459;-67
2023/07/31 01:02:15;;;;;;;;;6.00;3.00;;;;;21.93;54.35;101087.06;5016237;28;45502;-66
2023/07/31 01:04:43;;;;;;;;;5.00;5.00;;;;;21.93;54.88;101078.22;5015948;28;45525;-67
2023/07/31 01:07:24;;;;;;;;;5.33;3.33;;;;;21.95;54.40;101081.69;5016268;28;45371;-65
2023/07/31 01:10:06;;;;;;;;;5.67;3.67;;;;;21.92;54.54;101079.13;5017249;28;45479;-67
2023/07/31 01:12:37;;;;;;;;;7.00;4.00;;;;;21.88;54.42;101078.41;5016497;28;45532;-66
2023/07/31 01:15:10;;;;;;;;;3.00;3.00;;;;;21.75;54.88;101053.13;5031126;28;47507;-67
2023/07/31 01:17:40;;;;;;;;;4.00;4.00;;;;;21.85;54.39;101057.16;5031506;28;45504;-66
2023/07/31 01:20:16;;;;;;;;;4.67;4.00;;;;;21.88;54.61;101061.50;5016964;28;45355;-65
2023/07/31 01:23:04;;;;;;;;;6.00;4.00;;;;;21.87;54.29;101047.31;5015986;28;45525;-66
2023/07/31 01:25:54;;;;;;;;;3.67;2.67;;;;;21.85;54.55;101037.63;5015968;28;46137;-67
2023/07/31 01:28:29;;;;;;;;;6.67;2.67;;;;;21.74;54.33;101028.28;5003365;28;45482;-66
2023/07/31 01:30:59;;;;;;;;;4.00;3.33;;;;;21.53;54.50;100983.81;5015766;28;45468;-65
2023/07/31 01:33:25;;;;;;;;;6.00;4.00;;;;;21.60;54.25;101002.16;5016493;28;45418;-68
2023/07/31 01:35:51;;;;;;;;;3.00;3.00;;;;;21.81;54.55;101031.56;5016314;28;45723;-66
2023/07/31 01:38:22;;;;;;;;;3.00;3.00;;;;;21.70;54.28;101017.78;5015871;28;45497;-66
2023/07/31 01:40:51;;;;;;;;;3.67;3.00;;;;;21.81;54.12;101036.91;5016540;28;45439;-67
2023/07/31 01:43:17;;;;;;;;;2.33;2.00;;;;;21.77;54.35;101033.47;5015364;28;45601;-66
2023/07/31 01:45:43;;;;;;;;;2.33;2.00;;;;;21.75;54.18;101045.13;5014080;28;46125;-67
2023/07/31 01:48:08;;;;;;;;;5.33;3.00;;;;;21.74;54.16;101044.28;5015820;28;45395;-67
2023/07/31 01:50:34;;;;;;;;;5.00;2.00;;;;;21.56;54.13;101010.34;5031136;28;45427;-66
2023/07/31 01:52:59;;;;;;;;;3.33;3.33;;;;;21.80;54.35;101035.16;5016969;28;45468;-68
2023/07/31 01:55:25;;;;;;;;;2.67;2.67;;;;;21.79;53.98;101041.44;5014890;28;46468;-66
2023/07/31 01:57:52;;;;;;;;;1.67;1.67;;;;;21.79;54.15;101042.28;5015755;28;45439;-67
2023/07/31 02:00:18;;;;;;;;;3.33;2.00;;;;;21.76;54.15;101038.91;5016559;28;46200;-67
2023/07/31 02:02:43;;;;;;;;;5.67;3.00;;;;;21.69;54.01;101038.25;5017421;28;45374;-67
2023/07/31 02:05:09;;;;;;;;;3.00;3.00;;;;;21.71;54.02;101044.41;5017543;28;45558;-72
2023/07/31 02:07:34;;;;;;;;;3.00;2.33;;;;;21.71;54.05;101040.84;5019535;28;45584;-71
2023/07/31 02:10:00;;;;;;;;;2.00;2.00;;;;;21.69;53.97;101035.59;5019364;28;45360;-72
2023/07/31 02:12:26;;;;;;;;;3.00;3.00;;;;;21.69;53.93;101043.59;5019539;28;45363;-67
2023/07/31 02:14:51;;;;;;;;;6.67;3.00;;;;;21.60;53.70;101031.47;5030145;28;45526;-65
2023/07/31 02:17:20;;;;;;;;;3.67;3.67;;;;;21.53;53.92;101016.66;5018547;28;45818;-64
2023/07/31 02:19:46;;;;;;;;;4.67;4.00;;;;;21.64;53.72;101034.91;5005549;28;45459;-65
2023/07/31 02:22:13;;;;;;;;;2.00;2.00;;;;;21.46;53.54;100999.19;5020179;28;45514;-65
2023/07/31 02:24:39;;;;;;;;;4.67;2.67;;;;;21.61;53.58;101024.34;5018405;28;46172;-65
2023/07/31 02:27:05;;;;;;;;;2.00;2.00;;;;;21.54;53.75;101010.38;5018551;28;45337;-67
2023/07/31 02:29:30;;;;;;;;;4.00;2.33;;;;;21.57;54.04;100999.63;5017838;28;45408;-66
2023/07/31 02:31:56;;;;;;;;;3.67;2.00;;;;;21.52;53.92;101003.38;5019142;28;45573;-67
2023/07/31 02:34:22;;;;;;;;;6.00;2.00;;;;;21.57;53.66;101015.63;5019196;28;45704;-66
2023/07/31 02:36:51;;;;;;;;;3.00;2.33;;;;;21.45;54.14;101002.78;5018154;28;45528;-65
2023/07/31 02:39:17;;;;;;;;;4.00;3.00;;;;;21.47;53.79;100998.22;5033706;28;45447;-67
2023/07/31 02:41:42;;;;;;;;;1.67;1.67;;;;;21.52;53.91;101001.63;5033771;28;45592;-66
2023/07/31 02:44:08;;;;;;;;;7.00;3.00;;;;;21.46;53.88;100995.66;5015801;28;45500;-64
2023/07/31 02:46:34;;;;;;;;;4.00;3.00;;;;;21.48;53.80;100986.66;5018037;28;45664;-65
2023/07/31 02:48:59;;;;;;;;;2.67;2.00;;;;;21.45;53.91;100994.78;5017979;28;45572;-65
2023/07/31 02:51:25;;;;;;;;;2.00;2.00;;;;;21.48;53.26;100994.66;5018563;28;45309;-66
2023/07/31 02:53:50;;;;;;;;;2.00;2.00;;;;;21.45;53.76;100997.47;5017674;28;45434;-66
2023/07/31 02:56:16;;;;;;;;;2.00;2.00;;;;;21.39;53.72;100981.66;5016236;28;45679;-64
2023/07/31 02:58:41;;;;;;;;;3.00;1.33;;;;;21.35;53.40;100978.22;5014238;28;45576;-66
2023/07/31 03:01:07;;;;;;;;;2.67;2.00;;;;;21.39;53.69;100974.56;5009411;28;45426;-67
2023/07/31 03:03:33;;;;;;;;;2.67;2.00;;;;;21.38;53.55;100978.13;5017694;28;46203;-65
2023/07/31 03:05:58;;;;;;;;;3.33;3.00;;;;;21.33;53.58;100968.56;5017783;28;45320;-64
2023/07/31 03:08:24;;;;;;;;;3.00;1.67;;;;;21.29;53.72;100974.97;5017802;28;45239;-65
2023/07/31 03:10:49;;;;;;;;;2.33;1.00;;;;;21.15;53.85;100973.69;5017857;28;46092;-65
2023/07/31 03:13:18;;;;;;;;;2.00;2.00;;;;;21.21;54.01;100969.03;5018462;28;45541;-67
2023/07/31 03:15:43;;;;;;;;;4.00;2.00;;;;;21.23;53.99;100981.38;5018010;28;45485;-68
2023/07/31 03:18:09;;;;;;;;;5.00;2.67;;;;;21.21;53.87;100985.88;5017903;28;45522;-65
2023/07/31 03:20:35;;;;;;;;;2.00;2.00;;;;;21.22;54.06;100992.13;5019607;28;45501;-66
2023/07/31 03:23:00;;;;;;;;;9.67;8.33;;;;;21.23;54.32;100989.38;5018235;28;45565;-65
2023/07/31 03:25:26;;;;;;;;;3.00;2.67;;;;;21.05;54.05;100947.47;5017197;28;45616;-64
2023/07/31 03:27:51;;;;;;;;;5.33;2.00;;;;;21.20;53.94;100983.31;5017948;28;45438;-64
2023/07/31 03:30:17;;;;;;;;;2.33;2.33;;;;;21.21;54.09;100980.56;5016443;28;45661;-64
2023/07/31 03:32:43;;;;;;;;;5.00;3.33;;;;;21.17;53.79;100977.16;5033418;28;47814;-64
2023/07/31 03:35:08;;;;;;;;;2.00;1.00;;;;;21.09;54.04;100973.03;5032413;28;45395;-65
2023/07/31 03:37:34;;;;;;;;;3.00;1.33;;;;;21.07;54.13;100973.13;5017056;28;45589;-64
2023/07/31 03:39:59;;;;;;;;;5.00;2.00;;;;;21.05;54.15;100963.47;5017125;28;45686;-65
2023/07/31 03:42:25;;;;;;;;;1.33;1.33;;;;;21.08;54.09;100963.34;5016881;28;46232;-64
2023/07/31 03:44:51;;;;;;;;;4.00;2.33;;;;;21.07;54.31;100966.91;5017127;28;45449;-65
2023/07/31 03:47:17;;;;;;;;;2.00;2.00;;;;;20.93;54.05;100954.13;5016020;28;45348;-64
2023/07/31 03:49:42;;;;;;;;;2.00;2.00;;;;;20.86;54.17;100944.66;5017503;28;45431;-65
2023/07/31 03:52:08;;;;;;;;;4.67;3.33;;;;;21.06;54.12;100974.03;5017023;28;45498;-67
2023/07/31 03:54:34;;;;;;;;;3.33;2.00;;;;;21.03;53.84;100962.66;5017499;28;45355;-65
2023/07/31 03:56:59;;;;;;;;;2.00;2.00;;;;;21.06;53.89;100962.53;5011563;28;45418;-64
2023/07/31 03:59:25;;;;;;;;;3.00;2.00;;;;;21.10;53.62;100951.69;5016892;28;45400;-65
2023/07/31 04:01:50;;;;;;;;;2.00;0.00;;;;;21.05;53.69;100940.34;5032332;28;47490;-65
2023/07/31 04:04:16;;;;;;;;;1.00;1.00;;;;;21.12;53.67;100956.97;5016769;28;45437;-65
2023/07/31 04:06:42;;;;;;;;;0.33;0.33;;;;;21.07;53.78;100945.59;5017192;28;45529;-65
2023/07/31 04:09:08;;;;;;;;;4.00;3.00;;;;;21.08;53.67;100953.53;5016776;28;45522;-65
2023/07/31 04:11:33;;;;;;;;;2.00;2.00;;;;;21.01;53.40;100944.06;5016330;28;45406;-64
2023/07/31 04:14:00;;;;;;;;;4.00;2.00;;;;;21.02;53.02;100943.13;5016942;28;45597;-65
2023/07/31 04:16:26;;;;;;;;;1.67;1.00;;;;;20.99;53.13;100942.38;5018021;28;45425;-66
2023/07/31 04:18:52;;;;;;;;;1.33;1.33;;;;;21.02;52.68;100964.41;5018018;28;45238;-64
2023/07/31 04:21:17;;;;;;;;;2.33;2.00;;;;;21.02;52.74;100952.91;5017017;28;46009;-66
2023/07/31 04:23:43;;;;;;;;;2.33;1.67;;;;;20.97;52.83;100950.41;5032935;28;45439;-64
2023/07/31 04:26:08;;;;;;;;;3.00;3.00;;;;;21.01;52.79;100961.84;5017091;28;45510;-65
2023/07/31 04:28:35;;;;;;;;;1.67;1.67;;;;;20.80;53.02;100926.22;5014932;28;45464;-65
2023/07/31 04:31:01;;;;;;;;;2.33;2.33;;;;;20.88;52.91;100938.34;5031546;28;45771;-65
2023/07/31 04:33:27;;;;;;;;;4.00;3.00;;;;;21.02;53.09;100963.56;5016217;28;45418;-65
2023/07/31 04:35:54;;;;;;;;;5.00;3.00;;;;;20.98;53.08;100959.28;5015952;28;45491;-66
2023/07/31 04:38:20;;;;;;;;;4.67;3.33;;;;;20.89;52.85;100942.72;5016573;28;45396;-65
2023/07/31 04:40:46;;;;;;;;;1.67;1.67;;;;;20.95;53.05;100954.91;5016612;28;45770;-66
2023/07/31 04:43:12;;;;;;;;;2.00;2.00;;;;;20.92;53.52;100963.91;5016061;28;46401;-65
2023/07/31 04:45:37;;;;;;;;;1.00;1.00;;;;;20.94;52.95;100953.19;5016185;28;45399;-66
2023/07/31 04:48:04;;;;;;;;;4.00;3.00;;;;;20.85;52.77;100937.56;5016467;28;45406;-69
2023/07/31 04:50:30;;;;;;;;;3.33;2.67;;;;;20.92;52.97;100957.72;5017296;28;45588;-68
2023/07/31 04:52:59;;;;;;;;;3.33;3.00;;;;;20.83;53.38;100947.41;5016438;28;45639;-74
2023/07/31 04:55:25;;;;;;;;;3.33;3.00;;;;;20.93;55.43;100962.13;5016323;28;45886;-66
2023/07/31 04:57:50;;;;;;;;;2.33;2.33;;;;;21.05;54.15;100961.66;5016721;28;45343;-68
2023/07/31 05:00:16;;;;;;;;;2.67;2.00;;;;;21.03;53.91;100958.19;5031062;28;45785;-67
2023/07/31 05:02:42;;;;;;;;;3.00;3.00;;;;;21.08;53.38;100966.84;5015942;28;45240;-70
2023/07/31 05:05:07;;;;;;;;;5.00;3.00;;;;;21.00;52.91;100952.97;5016674;28;45707;-67
2023/07/31 05:07:33;;;;;;;;;5.67;4.00;;;;;20.86;53.63;100928.69;5016642;28;45257;-71
2023/07/31 05:09:59;;;;;;;;;5.00;3.00;;;;;20.93;53.77;100936.38;5015929;28;46178;-71
2023/07/31 05:12:24;;;;;;;;;5.00;2.67;;;;;21.07;54.43;100967.81;5016487;28;45476;-69
2023/07/31 05:14:50;;;;;;;;;4.00;3.00;;;;;20.98;53.88;100946.84;5016797;28;45390;-70
2023/07/31 05:17:16;;;;;;;;;6.00;5.00;;;;;21.08;53.71;100958.88;5015544;28;45600;-71
2023/07/31 05:19:42;;;;;;;;;4.00;3.67;;;;;21.01;53.87;100928.06;5016521;28;45401;-72
2023/07/31 05:22:08;;;;;;;;;4.00;3.00;;;;;20.84;54.69;100898.56;5015853;28;45399;-69
2023/07/31 05:24:33;;;;;;;;;5.33;4.00;;;;;21.04;54.21;100930.63;5016436;28;45372;-72
2023/07/31 05:26:59;;;;;;;;;3.00;3.00;;;;;21.14;54.47;100934.69;5018672;28;45285;-72
2023/07/31 05:29:28;;;;;;;;;3.33;2.67;;;;;21.11;55.01;100936.56;5028746;28;46443;-75
2023/07/31 05:31:57;;;;;;;;;6.00;3.00;;;;;21.30;54.19;100956.22;5027099;28;45540;-70
2023/07/31 05:34:25;;;;;;;;;4.67;4.33;;;;;21.27;54.29;100948.38;4999067;28;45456;-69
2023/07/31 05:36:51;;;;;;;;;6.67;4.00;;;;;21.30;54.90;100948.25;5002105;28;45516;-71
2023/07/31 05:39:16;;;;;;;;;8.33;4.00;;;;;21.34;54.50;100949.00;5013351;28;45565;-71
2023/07/31 05:41:42;;;;;;;;;6.67;3.33;;;;;21.29;54.20;100940.34;5019592;28;45461;-75
2023/07/31 05:44:08;;;;;;;;;4.00;4.00;;;;;21.19;54.53;100929.19;5020268;28;45594;-73
2023/07/31 05:46:37;;;;;;;;;5.00;2.33;;;;;21.24;54.43;100937.00;5019381;28;45586;-75
2023/07/31 05:49:12;;;;;;;;;5.00;4.00;;;;;21.27;54.53;100937.72;5006241;28;46133;-76
2023/07/31 05:51:38;;;;;;;;;4.33;4.33;;;;;21.26;54.45;100937.75;5010521;28;45343;-72
2023/07/31 05:54:05;;;;;;;;;5.67;5.00;;;;;21.20;54.87;100930.91;5019986;28;45505;-73
2023/07/31 05:56:31;;;;;;;;;3.67;2.67;;;;;20.95;55.18;100891.03;5020579;28;45475;-72
2023/07/31 05:58:59;;;;;;;;;5.00;3.00;;;;;21.09;55.68;100911.78;5007444;28;45539;-72
2023/07/31 06:01:39;;;;;;;;;8.00;5.67;;;;;20.26;55.50;100781.84;5018440;28;45580;-69
2023/07/31 06:04:05;;;;;;;;;7.00;6.00;;;;;20.93;55.88;100888.44;5019179;28;45335;-68
2023/07/31 06:06:31;;;;;;;;;7.33;5.00;;;;;21.09;56.47;100902.00;5010808;28;45699;-70
2023/07/31 06:08:57;;;;;;;;;9.33;5.00;;;;;21.20;55.84;100914.06;4998427;28;45482;-68
2023/07/31 06:11:23;;;;;;;;;10.33;5.00;;;;;21.22;55.67;100912.19;5010846;28;45331;-67
2023/07/31 06:13:49;;;;;;;;;6.00;4.67;;;;;21.15;55.80;100895.59;5020636;28;45474;-69
2023/07/31 06:16:22;;;;;;;;;8.33;6.00;;;;;21.11;56.13;100884.16;5020833;28;45488;-69
2023/07/31 06:18:48;;;;;;;;;11.00;5.33;;;;;21.25;56.08;100904.94;5019276;28;45608;-69
2023/07/31 06:21:29;;;;;;;;;8.33;6.00;;;;;21.09;56.39;100896.69;5010936;28;45461;-69
2023/07/31 06:23:55;;;;;;;;;11.33;6.00;;;;;21.06;56.76;100891.47;5004389;28;45518;-69
2023/07/31 06:26:20;;;;;;;;;7.00;5.33;;;;;21.02;57.00;100894.31;4999563;28;45484;-68
2023/07/31 06:28:46;;;;;;;;;4.67;4.67;;;;;20.99;57.32;100889.13;5002791;28;46381;-70
2023/07/31 06:31:12;;;;;;;;;3.00;3.00;;;;;20.95;57.23;100891.03;4998387;28;45412;-70
2023/07/31 06:33:37;;;;;;;;;9.33;6.67;;;;;21.00;57.32;100906.81;5007707;28;45557;-69
2023/07/31 06:36:04;;;;;;;;;6.00;5.33;;;;;21.01;57.24;100895.25;5002706;28;45590;-68
2023/07/31 06:38:30;;;;;;;;;7.00;6.33;;;;;21.04;57.41;100909.31;5003731;28;46054;-69
2023/07/31 06:40:55;;;;;;;;;5.67;5.00;;;;;20.98;57.46;100909.56;5005700;28;45449;-68
2023/07/31 06:43:21;;;;;;;;;9.67;5.67;;;;;20.99;57.76;100911.28;5004577;28;45390;-68
2023/07/31 06:45:51;;;;;;;;;5.33;5.33;;;;;20.90;58.30;100911.63;4998425;28;45435;-68
2023/07/31 06:48:16;;;;;;;;;7.33;5.33;;;;;20.67;58.19;100893.91;5000854;28;45534;-68
2023/07/31 06:50:42;;;;;;;;;8.00;5.00;;;;;20.87;58.42;100903.78;5015676;28;45601;-68
2023/07/31 06:53:07;;;;;;;;;8.00;4.67;;;;;20.97;58.14;100918.47;4998165;28;45518;-69
2023/07/31 06:55:33;;;;;;;;;8.33;4.00;;;;;20.86;58.26;100899.38;4999333;28;45360;-68
2023/07/31 06:57:58;;;;;;;;;6.33;5.00;;;;;20.87;58.62;100906.44;4999382;28;46560;-68
2023/07/31 07:00:28;;;;;;;;;12.67;7.00;;;;;20.75;59.07;100900.66;4998871;28;45596;-69
2023/07/31 07:02:54;;;;;;;;;7.33;5.33;;;;;20.85;59.25;100913.59;4997418;28;45446;-69
2023/07/31 07:05:26;;;;;;;;;6.33;6.33;;;;;20.87;58.93;100911.75;5005937;28;45594;-69
2023/07/31 07:07:52;;;;;;;;;7.00;5.00;;;;;20.86;58.93;100891.41;4997416;28;46072;-69
2023/07/31 07:10:18;;;;;;;;;9.33;7.33;;;;;21.04;58.89;100908.44;4997561;28;45399;-70
2023/07/31 07:12:44;;;;;;;;;6.33;5.33;;;;;21.09;58.48;100902.00;4998649;28;45410;-69
2023/07/31 07:15:14;;;;;;;;;11.67;6.00;;;;;21.06;58.43;100875.50;4981290;28;46779;-67
2023/07/31 07:17:39;;;;;;;;;6.33;6.33;;;;;21.18;58.42;100896.31;5033489;28;47588;-68
2023/07/31 07:20:06;;;;;;;;;6.67;6.67;;;;;21.21;58.45;100894.47;5016982;28;45432;-68
2023/07/31 07:22:35;;;;;;;;;9.67;5.33;;;;;21.17;58.52;100877.75;5013099;28;45422;-69
2023/07/31 07:25:02;;;;;;;;;8.00;7.33;;;;;21.13;58.13;100854.81;5004578;28;45641;-68
2023/07/31 07:27:31;;;;;;;;;9.67;7.00;;;;;21.41;57.89;100889.25;4987487;28;46640;-69
2023/07/31 07:29:57;;;;;;;;;7.67;6.00;;;;;21.45;57.74;100896.19;4996209;28;45456;-69
2023/07/31 07:32:22;;;;;;;;;13.00;9.00;;;;;21.43;57.42;100879.41;4983199;28;46804;-67
2023/07/31 07:34:48;;;;;;;;;7.00;6.33;;;;;21.46;57.46;100867.75;4992358;28;45498;-69
2023/07/31 07:37:14;;;;;;;;;7.67;5.00;;;;;21.48;57.29;100858.75;4987586;28;46267;-69
2023/07/31 07:39:41;;;;;;;;;9.00;5.00;;;;;21.80;56.99;100893.84;4989678;28;45539;-72
2023/07/31 07:42:06;;;;;;;;;9.00;6.00;;;;;21.68;56.63;100870.38;4997197;28;45427;-69
2023/07/31 07:44:33;;;;;;;;;7.67;7.00;;;;;21.86;56.52;100882.94;4998889;28;45471;-68
2023/07/31 07:46:59;;;;;;;;;6.33;5.33;;;;;21.93;56.32;100895.06;4998713;28;45444;-72
2023/07/31 07:49:25;;;;;;;;;5.33;4.33;;;;;21.92;56.41;100881.78;4991333;28;45826;-68
2023/07/31 07:51:51;;;;;;;;;8.67;6.00;;;;;22.00;55.79;100856.53;4998402;28;45430;-70
2023/07/31 07:54:17;;;;;;;;;12.00;8.00;;;;;22.37;55.03;100883.41;4998971;28;45415;-69
2023/07/31 07:56:42;;;;;;;;;8.00;6.00;;;;;22.38;54.75;100861.16;5012537;28;46090;-70
2023/07/31 07:59:08;;;;;;;;;7.00;7.00;;;;;22.39;54.68;100852.19;4995702;28;45253;-70
2023/07/31 08:01:34;;;;;;;;;7.67;7.33;;;;;22.40;54.54;100861.91;4995421;28;45904;-71
2023/07/31 08:03:59;;;;;;;;;7.67;7.00;;;;;22.49;54.38;100890.00;4996117;28;45811;-70
2023/07/31 08:06:25;;;;;;;;;7.67;5.33;;;;;22.52;54.24;100877.41;4998117;28;45518;-71
2023/07/31 08:08:50;;;;;;;;;9.33;8.00;;;;;22.22;53.99;100831.63;4996044;28;45430;-75
2023/07/31 08:11:16;;;;;;;;;7.00;5.67;;;;;22.34;54.11;100846.19;4999029;28;45389;-71
2023/07/31 08:13:42;;;;;;;;;7.00;5.00;;;;;22.20;53.84;100823.66;4997802;28;45481;-70
2023/07/31 08:16:08;;;;;;;;;8.33;7.00;;;;;22.46;54.02;100850.97;4996224;28;45442;-68
2023/07/31 08:18:34;;;;;;;;;8.33;7.00;;;;;22.65;53.79;100875.03;4996462;28;45512;-69
2023/07/31 08:21:02;;;;;;;;;5.00;5.00;;;;;22.63;54.00;100872.41;4996469;28;45383;-71
2023/07/31 08:23:31;;;;;;;;;6.00;6.00;;;;;22.57;53.52;100871.84;4987469;28;45590;-66
2023/07/31 08:25:57;;;;;;;;;9.33;5.67;;;;;22.53;53.68;100859.56;4993261;28;45522;-66
2023/07/31 08:28:23;;;;;;;;;8.00;7.33;;;;;22.66;53.93;100882.13;5013121;28;45420;-72
2023/07/31 08:30:50;;;;;;;;;7.00;5.67;;;;;22.58;53.88;100833.53;4997782;28;45494;-68
2023/07/31 08:33:19;;;;;;;;;9.00;6.00;;;;;22.70;53.02;100837.44;4998075;28;45306;-68
2023/07/31 08:35:44;;;;;;;;;5.33;5.00;;;;;22.91;52.81;100862.25;4997063;28;45656;-71
2023/07/31 08:38:12;;;;;;;;;10.00;7.00;;;;;22.90;52.63;100852.50;4995594;28;45285;-72
2023/07/31 08:40:38;;;;;;;;;9.00;7.00;;;;;22.84;53.08;100862.53;4999483;28;45608;-81
2023/07/31 08:43:04;;;;;;;;;11.00;5.67;;;;;22.46;52.88;100781.59;4998785;28;45483;-74
2023/07/31 08:45:30;;;;;;;;;6.67;4.67;;;;;22.83;52.85;100850.13;4996153;28;45760;-68
2023/07/31 08:47:57;;;;;;;;;6.00;6.00;;;;;22.93;52.45;100847.91;4996635;28;45498;-69
2023/07/31 08:50:27;;;;;;;;;6.67;6.00;;;;;22.96;52.42;100841.53;4996549;28;45590;-75
2023/07/31 08:52:59;;;;;;;;;8.67;7.33;;;;;22.90;52.57;100850.72;4994950;28;45827;-68
2023/07/31 08:55:26;;;;;;;;;6.67;5.33;;;;;22.88;52.44;100852.59;4998764;28;46718;-67
2023/07/31 08:57:55;;;;;;;;;8.00;7.00;;;;;22.57;52.65;100811.31;4998621;28;45458;-69
2023/07/31 09:00:23;;;;;;;;;6.33;4.33;;;;;22.31;53.21;100782.31;4997784;28;45489;-70
2023/07/31 09:02:59;;;;;;;;;6.00;6.00;;;;;22.66;53.41;100842.06;4997940;28;45355;-70
2023/07/31 09:05:26;;;;;;;;;6.33;6.33;;;;;22.67;53.29;100833.09;4993312;28;46472;-68
2023/07/31 09:07:53;;;;;;;;;8.67;6.67;;;;;22.71;53.21;100832.03;4995915;28;45699;-75
2023/07/31 09:10:19;;;;;;;;;13.00;5.67;;;;;22.44;53.46;100816.34;4994921;28;45685;-72
2023/07/31 09:12:45;;;;;;;;;5.33;5.33;;;;;22.56;53.95;100844.28;4996272;28;45619;-72
2023/07/31 09:15:11;;;;;;;;;9.00;5.00;;;;;22.54;53.90;100837.28;5000921;28;45417;-73
2023/07/31 09:17:37;;;;;;;;;7.00;5.33;;;;;22.57;53.96;100850.50;5004167;28;45285;-76
2023/07/31 09:20:16;;;;;;;;;6.67;5.00;;;;;22.63;54.04;100851.06;5003872;28;45542;-74
2023/07/31 09:22:43;;;;;;;;;6.33;4.33;;;;;22.68;53.96;100842.84;5006124;28;45479;-75
2023/07/31 09:25:16;;;;;;;;;6.00;5.00;;;;;22.78;53.87;100838.81;5003396;28;46572;-75
2023/07/31 09:27:57;;;;;;;;;9.33;4.33;;;;;22.66;53.67;100820.72;5004826;28;45553;-75
2023/07/31 09:30:30;;;;;;;;;7.00;5.00;;;;;22.65;53.81;100826.97;5004095;28;45730;-68
2023/07/31 09:33:07;;;;;;;;;9.67;6.33;;;;;22.63;54.26;100852.88;5003478;28;45252;-68
2023/07/31 09:35:41;;;;;;;;;10.33;7.33;;;;;22.61;54.48;100847.63;5002172;28;46144;-70
2023/07/31 09:38:15;;;;;;;;;7.33;6.00;;;;;22.53;55.26;100839.09;5004444;28;45387;-72
2023/07/31 09:40:58;;;;;;;;;6.00;5.00;;;;;22.30;55.49;100834.78;5005072;28;45534;-69
2023/07/31 09:43:28;;;;;;;;;7.00;6.33;;;;;22.25;55.75;100841.28;5005342;28;45983;-71
2023/07/31 09:45:58;;;;;;;;;8.00;5.67;;;;;22.32;56.07;100848.06;5004338;28;45329;-72
2023/07/31 09:48:32;;;;;;;;;6.00;6.00;;;;;22.37;56.26;100846.91;4999135;28;45587;-70
2023/07/31 09:51:05;;;;;;;;;6.00;5.33;;;;;22.48;56.47;100840.25;4999539;28;45341;-68
2023/07/31 09:53:35;;;;;;;;;4.67;4.33;;;;;22.50;56.16;100820.56;5004632;28;45339;-70
2023/07/31 09:56:06;;;;;;;;;11.67;6.00;;;;;22.68;55.93;100828.63;5003490;28;46265;-73
2023/07/31 09:58:53;;;;;;;;;6.33;5.00;;;;;22.56;55.93;100830.94;5002510;28;45652;-72
2023/07/31 10:01:24;;;;;;;;;8.33;5.33;;;;;22.36;55.93;100797.16;5002034;28;45474;-70
2023/07/31 10:03:51;;;;;;;;;8.67;5.67;;;;;22.67;56.20;100832.25;5013410;28;45648;-68
2023/07/31 10:06:23;;;;;;;;;5.00;4.67;;;;;22.71;56.13;100847.16;5002426;28;46216;-73
2023/07/31 10:08:58;;;;;;;;;7.67;6.33;;;;;22.54;56.51;100831.94;5003264;28;45512;-69
2023/07/31 10:11:28;;;;;;;;;10.00;7.33;;;;;22.47;56.63;100809.13;5002125;28;45478;-71
2023/07/31 10:13:59;;;;;;;;;6.67;6.00;;;;;22.16;56.95;100808.72;4985004;28;45414;-70
2023/07/31 10:16:27;;;;;;;;;7.33;4.33;;;;;21.92;57.81;100824.00;5000924;28;46266;-68
2023/07/31 10:18:57;;;;;;;;;7.00;4.33;;;;;21.83;58.03;100835.09;5001684;28;45305;-69
2023/07/31 10:21:35;;;;;;;;;11.00;6.00;;;;;21.70;58.17;100810.72;5015280;28;45437;-72
2023/07/31 10:24:09;;;;;;;;;10.00;5.33;;;;;21.63;58.60;100787.09;5008804;28;46277;-72
2023/07/31 10:26:40;;;;;;;;;5.67;5.00;;;;;21.74;59.84;100814.16;4998176;28;46105;-70
2023/07/31 10:29:10;;;;;;;;;7.67;6.67;;;;;21.86;60.49;100821.59;4997162;28;45414;-68
2023/07/31 10:31:40;;;;;;;;;10.33;7.00;;;;;21.90;61.37;100796.56;5000247;28;45662;-71
2023/07/31 10:34:11;;;;;;;;;14.00;12.33;;;;;21.94;61.07;100781.28;4999546;28;45562;-71
2023/07/31 10:37:08;;;;;;;;;15.00;14.67;;;;;21.86;60.69;100741.63;4999290;28;46280;-71
2023/07/31 10:39:40;;;;;;;;;10.33;9.00;;;;;22.17;60.33;100804.25;4994969;28;45497;-73
2023/07/31 10:42:15;;;;;;;;;9.33;7.33;;;;;22.07;60.42;100770.91;4997846;28;45509;-71
2023/07/31 10:44:48;;;;;;;;;36.33;28.67;;;;;22.22;61.13;100803.13;4997949;28;46579;-71
2023/07/31 10:47:19;;;;;;;;;47.67;36.00;;;;;21.94;61.01;100742.13;4996968;28;45474;-75
2023/07/31 10:49:50;;;;;;;;;65.50;50.50;;;;;22.39;61.11;100804.16;4996038;28;45478;-69
2023/07/31 10:52:23;;;;;;;;;17.33;13.33;;;;;22.39;60.63;100796.16;4997610;28;45653;-71
2023/07/31 10:55:23;;;;;;;;;12.00;9.67;;;;;22.41;60.79;100780.94;4999053;28;45618;-70
2023/07/31 10:57:53;;;;;;;;;9.33;7.00;;;;;22.40;60.60;100785.41;4973160;28;46138;-72
2023/07/31 11:00:30;;;;;;;;;9.00;9.00;;;;;22.47;60.51;100817.13;4996605;28;45558;-73
2023/07/31 11:03:06;;;;;;;;;9.33;6.67;;;;;22.49;60.07;100792.13;4992174;28;45588;-72
2023/07/31 11:06:06;;;;;;;;;7.00;4.33;;;;;22.13;60.37;100779.50;4997583;28;46037;-77
2023/07/31 11:08:59;;;;;;;;;14.00;8.33;;;;;22.09;61.05;100791.25;5012597;28;45642;-74
2023/07/31 11:11:27;;;;;;;;;8.67;6.00;;;;;21.91;61.26;100776.94;4996028;28;45450;-75
2023/07/31 11:13:57;;;;;;;;;8.33;7.33;;;;;21.81;62.01;100763.16;4988837;28;45655;-73
2023/07/31 11:16:29;;;;;;;;;6.33;5.33;;;;;22.03;62.27;100781.72;4993054;28;45309;-74
2023/07/31 11:18:58;;;;;;;;;6.33;6.33;;;;;21.89;62.22;100769.94;4994972;28;45489;-73
2023/07/31 11:21:37;;;;;;;;;7.33;6.33;;;;;21.86;62.60;100762.94;4994415;28;45518;-72
2023/07/31 11:24:11;;;;;;;;;7.67;5.67;;;;;21.48;62.68;100706.00;5002009;28;45595;-76
2023/07/31 11:26:39;;;;;;;;;12.67;7.00;;;;;21.51;62.90;100705.88;4995267;28;45515;-74
2023/07/31 11:29:19;;;;;;;;;9.67;9.33;;;;;21.85;62.92;100763.00;4991316;28;45820;-73